Time;durP1;ratioP1;P1;durP2;ratioP2;P2;SDS_P1;SDS_P2;PMS_P1;PMS_P2;Temp;Humidity;BMP_temperature;BMP_pressure;BME280_temperature;BME280_humidity;BME280_pressure;Samples;Min_cycle;Max_cycle;Signal;HPM_P1;HPM_P2
2023/12/27 00:01:08;;;;;;;;;;;10.40;58.00;;;8.98;61.45;101434.66;12250960;19;20245;-84
2023/12/27 00:05:09;;;;;;;;;;;10.40;58.00;;;8.66;61.58;101387.19;12252693;19;19925;-84
2023/12/27 00:09:11;;;;;;;;;;;10.40;57.70;;;8.88;61.63;101434.13;12252541;19;19947;-84
2023/12/27 00:13:13;;;;;;;;;;;10.40;57.90;;;8.87;61.69;101455.88;12253315;19;19922;-84
2023/12/27 00:17:15;;;;;;;;;;;10.30;57.80;;;8.93;61.70;101470.44;12246715;19;20333;-84
2023/12/27 00:21:17;;;;;;;;;;;10.30;57.70;;;8.80;61.69;101446.56;12247962;19;19919;-84
2023/12/27 00:25:18;;;;;;;;;;;10.30;57.70;;;8.90;61.73;101475.75;12250456;19;19938;-84
2023/12/27 00:29:20;;;;;;;;;;;10.30;57.90;;;8.65;61.62;101429.75;12250366;19;20245;-84
2023/12/27 00:33:22;;;;;;;;;;;10.30;57.90;;;8.93;61.65;101478.25;12250333;19;19910;-84
2023/12/27 00:37:23;;;;;;;;;;;10.30;57.90;;;8.88;61.54;101480.16;12250638;19;19945;-84
2023/12/27 00:41:25;;;;;;;;;;;10.30;57.60;;;8.85;61.58;101487.19;12246994;19;19971;-84
2023/12/27 00:45:26;;;;;;;;;;;10.30;57.80;;;8.83;61.44;101493.34;12250062;19;19919;-84
2023/12/27 00:49:28;;;;;;;;;;;10.20;57.70;;;8.67;61.51;101481.75;12249120;19;19911;-84
2023/12/27 00:53:30;;;;;;;;;;;10.20;57.90;;;8.69;61.43;101496.44;12251252;19;19931;-84
2023/12/27 00:57:32;;;;;;;;;;;10.10;57.70;;;8.75;61.62;101524.88;12247335;19;19919;-84
2023/12/27 01:01:34;;;;;;;;;;;10.10;57.80;;;8.69;61.61;101526.84;12245018;19;20241;-84
2023/12/27 01:05:35;;;;;;;;;;;10.10;57.80;;;8.69;61.48;101532.88;12246892;19;19923;-84
2023/12/27 01:09:37;;;;;;;;;;;10.10;57.80;;;8.47;61.52;101500.69;12248194;19;19915;-84
2023/12/27 01:13:39;;;;;;;;;;;10.10;57.90;;;8.34;61.33;101485.44;12246372;19;20279;-84
2023/12/27 01:17:41;;;;;;;;;;;10.00;57.90;;;8.67;61.45;101541.66;12245766;19;20321;-84
2023/12/27 01:21:42;;;;;;;;;;;10.00;57.90;;;8.62;61.35;101554.84;12246089;19;19918;-84
2023/12/27 01:25:44;;;;;;;;;;;10.00;57.80;;;8.61;61.49;101553.13;12247353;19;19926;-84
2023/12/27 01:29:45;;;;;;;;;;;9.90;57.90;;;8.46;61.47;101545.84;12245032;19;19923;-84
2023/12/27 01:33:47;;;;;;;;;;;9.90;57.90;;;8.55;61.40;101581.97;12245665;19;19915;-84
2023/12/27 01:37:49;;;;;;;;;;;9.90;57.90;;;8.54;61.35;101588.09;12245012;19;19919;-84
2023/12/27 01:41:51;;;;;;;;;;;9.90;57.90;;;8.53;61.32;101599.38;12240654;19;19919;-84
2023/12/27 01:45:52;;;;;;;;;;;9.90;57.90;;;8.23;61.54;101565.59;12244842;19;19936;-84
2023/12/27 01:49:54;;;;;;;;;;;9.80;57.90;;;8.39;61.30;101599.84;12244289;19;20324;-84
2023/12/27 01:53:57;;;;;;;;;;;9.80;57.80;;;8.36;61.47;101608.56;12245516;19;19922;-84
2023/12/27 01:58:00;;;;;;;;;;;9.80;58.00;;;8.38;61.29;101609.38;12243809;19;19926;-84
2023/12/27 02:02:02;;;;;;;;;;;9.80;58.00;;;8.34;61.34;101604.31;12242164;19;19931;-84
2023/12/27 02:06:04;;;;;;;;;;;9.80;58.00;;;8.28;61.24;101605.34;12246778;19;19923;-84
2023/12/27 02:10:06;;;;;;;;;;;9.80;57.90;;;8.24;61.40;101595.94;12244016;19;19935;-84
2023/12/27 02:14:08;;;;;;;;;;;9.80;57.80;;;8.30;61.45;101611.38;12244480;19;19935;-84
2023/12/27 02:18:10;;;;;;;;;;;9.70;57.90;;;8.32;61.31;101619.13;12238783;19;19915;-84
2023/12/27 02:22:15;;;;;;;;;;;9.70;57.90;;;8.33;61.43;101629.47;12241608;19;19939;-84
2023/12/27 02:26:17;;;;;;;;;;;9.70;57.90;;;8.17;61.42;101608.28;12243636;19;19982;-84
2023/12/27 02:30:20;;;;;;;;;;;9.70;57.90;;;8.24;61.56;101615.94;12242588;19;19914;-84
2023/12/27 02:34:22;;;;;;;;;;;9.60;57.90;;;8.30;61.50;101633.94;12243774;19;19919;-84
2023/12/27 02:38:23;;;;;;;;;;;9.60;58.00;;;8.19;61.54;101608.25;12243586;19;19903;-84
2023/12/27 02:42:41;;;;;;;;;;;9.60;58.00;;;8.20;61.32;101623.78;12254569;19;19922;-84
2023/12/27 02:46:43;;;;;;;;;;;9.60;58.00;;;8.08;61.22;101608.59;12255173;19;19918;-84
2023/12/27 02:50:44;;;;;;;;;;;9.60;57.90;;;8.12;61.26;101625.78;12250872;19;19972;-84
2023/12/27 02:54:46;;;;;;;;;;;9.50;57.90;;;8.04;61.33;101616.50;12253921;19;20049;-84
2023/12/27 02:58:48;;;;;;;;;;;9.50;57.90;;;8.09;61.49;101619.84;12251597;19;20255;-84
2023/12/27 03:02:49;;;;;;;;;;;9.40;57.90;;;8.01;61.45;101607.06;12255125;19;20473;-84
2023/12/27 03:06:52;;;;;;;;;;;9.40;57.90;;;7.97;61.42;101606.31;12255005;19;19919;-84
2023/12/27 03:10:55;;;;;;;;;;;9.40;57.90;;;7.97;61.22;101614.09;12250551;19;19919;-84
2023/12/27 03:14:57;;;;;;;;;;;9.40;58.00;;;7.96;61.17;101614.13;12250568;19;19957;-84
2023/12/27 03:18:59;;;;;;;;;;;9.40;58.00;;;7.93;61.27;101628.09;12252736;19;19922;-84
2023/12/27 03:23:02;;;;;;;;;;;9.30;57.90;;;7.97;61.36;101636.66;12252626;19;19919;-84
2023/12/27 03:27:04;;;;;;;;;;;9.30;57.90;;;7.82;61.30;101622.34;12255232;19;20329;-84
2023/12/27 03:31:06;;;;;;;;;;;9.30;58.00;;;7.93;61.28;101641.09;12251701;19;19911;-84
2023/12/27 03:35:07;;;;;;;;;;;9.20;57.90;;;7.76;61.22;101617.34;12254260;19;19915;-84
2023/12/27 03:39:09;;;;;;;;;;;9.20;57.90;;;7.81;61.16;101640.63;12249830;19;20300;-84
2023/12/27 03:43:11;;;;;;;;;;;9.20;58.00;;;7.80;61.10;101639.75;12252526;19;19922;-84
2023/12/27 03:47:12;;;;;;;;;;;9.20;58.00;;;7.83;61.24;101647.47;12249349;19;20386;-84
2023/12/27 03:51:14;;;;;;;;;;;9.20;58.00;;;7.86;61.21;101660.38;12248519;19;20385;-84
2023/12/27 03:55:17;;;;;;;;;;;9.20;58.00;;;7.63;61.08;101640.22;12253084;19;19926;-84
2023/12/27 03:59:18;;;;;;;;;;;9.10;58.00;;;7.70;61.30;101656.53;12249796;19;19918;-84
2023/12/27 04:03:19;;;;;;;;;;;9.10;57.90;;;7.76;61.32;101679.75;12251252;19;20342;-84
2023/12/27 04:07:21;;;;;;;;;;;9.10;58.00;;;7.75;61.17;101665.91;12252322;19;19919;-84
2023/12/27 04:11:22;;;;;;;;;;;9.10;58.00;;;7.67;61.09;101659.19;12247901;19;19915;-84
2023/12/27 04:15:24;;;;;;;;;;;9.10;58.00;;;7.75;61.17;101672.84;12251046;19;20246;-84
2023/12/27 04:19:25;;;;;;;;;;;9.10;58.00;;;7.70;61.00;101680.75;12247230;19;19911;-84
2023/12/27 04:23:27;;;;;;;;;;;9.10;58.00;;;7.71;61.17;101692.84;12251432;19;19926;-84
2023/12/27 04:27:29;;;;;;;;;;;9.00;58.00;;;7.69;61.07;101686.00;12251366;19;19915;-84
2023/12/27 04:31:30;;;;;;;;;;;9.00;58.00;;;7.63;61.11;101680.97;12247563;19;19926;-84
2023/12/27 04:35:32;;;;;;;;;;;9.00;57.90;;;7.63;61.20;101686.16;12250377;19;19914;-84
2023/12/27 04:39:34;;;;;;;;;;;9.00;58.00;;;7.53;61.14;101681.25;12246969;19;20322;-84
2023/12/27 04:43:36;;;;;;;;;;;9.00;58.00;;;7.54;61.18;101676.88;12248851;19;19926;-84
2023/12/27 04:47:39;;;;;;;;;;;9.00;58.00;;;7.26;61.14;101635.19;12248603;19;19941;-84
2023/12/27 04:51:44;;;;;;;;;;;9.00;58.00;;;7.60;61.08;101694.06;12242554;19;19939;-84
2023/12/27 04:55:45;;;;;;;;;;;9.00;58.00;;;7.62;60.98;101700.06;12245156;19;19947;-84
2023/12/27 04:59:47;;;;;;;;;;;8.90;57.90;;;7.59;61.19;101705.31;12241888;19;19915;-84
2023/12/27 05:03:50;;;;;;;;;;;8.90;57.90;;;7.60;60.94;101720.06;12244584;19;19915;-84
2023/12/27 05:07:51;;;;;;;;;;;8.90;57.90;;;7.46;60.91;101703.06;12246634;19;19922;-84
2023/12/27 05:11:53;;;;;;;;;;;8.90;57.90;;;7.51;61.19;101724.59;12240379;19;19927;-84
2023/12/27 05:16:18;;;;;;;;;;;8.90;57.90;;;7.54;60.97;101736.66;12240893;19;19918;-84
2023/12/27 05:20:20;;;;;;;;;;;8.90;58.20;;;7.48;61.01;101735.06;12239448;19;19947;-84
2023/12/27 05:24:22;;;;;;;;;;;8.80;57.80;;;7.44;60.90;101740.38;12245199;19;19953;-84
2023/12/27 05:28:24;;;;;;;;;;;8.80;57.70;;;7.26;61.08;101727.00;12242283;19;19911;-84
2023/12/27 05:32:25;;;;;;;;;;;8.70;57.70;;;7.27;61.13;101733.03;12237766;19;19922;-84
2023/12/27 05:36:27;;;;;;;;;;;8.70;57.80;;;7.21;61.06;101738.34;12245132;19;19926;-84
2023/12/27 05:40:28;;;;;;;;;;;8.60;57.70;;;7.07;60.96;101725.72;12242092;19;19922;-84
2023/12/27 05:44:30;;;;;;;;;;;8.50;57.80;;;6.96;60.97;101710.41;12243395;19;19992;-84
2023/12/27 05:48:32;;;;;;;;;;;8.50;57.80;;;7.14;61.08;101740.28;12042990;19;3936725;-84
2023/12/27 05:52:33;;;;;;;;;;;8.50;57.80;;;7.14;60.85;101758.44;12245439;19;20355;-84
2023/12/27 05:56:35;;;;;;;;;;;8.50;57.80;;;7.02;60.93;101743.16;12246784;19;20403;-84
2023/12/27 06:00:37;;;;;;;;;;;8.40;57.80;;;6.92;60.99;101741.69;12245672;19;19932;-84
2023/12/27 06:04:39;;;;;;;;;;;8.40;57.80;;;7.03;61.02;101769.09;12246313;19;19914;-84
2023/12/27 06:08:41;;;;;;;;;;;8.40;57.80;;;6.98;61.17;101767.50;12247284;19;20380;-84
2023/12/27 06:12:43;;;;;;;;;;;8.40;57.90;;;6.78;60.91;101744.59;12245804;19;19922;-85
2023/12/27 06:16:44;;;;;;;;;;;8.30;57.90;;;6.82;60.92;101767.00;12255820;19;19907;-85
2023/12/27 06:20:46;;;;;;;;;;;8.30;57.90;;;6.90;61.13;101780.66;12255057;19;19923;-85
2023/12/27 06:24:48;;;;;;;;;;;8.30;57.90;;;6.89;61.08;101799.72;12260324;19;19922;-85
2023/12/27 06:28:49;;;;;;;;;;;8.40;57.90;;;6.97;61.25;101812.53;12257138;19;20334;-85
2023/12/27 06:32:51;;;;;;;;;;;8.30;57.90;;;6.92;61.22;101819.56;12256859;19;19989;-85
2023/12/27 06:36:53;;;;;;;;;;;8.30;57.90;;;6.93;61.12;101816.09;12257686;19;20258;-85
2023/12/27 06:40:55;;;;;;;;;;;8.30;57.90;;;6.85;60.96;101819.69;12255847;19;19986;-85
2023/12/27 06:44:56;;;;;;;;;;;8.30;57.80;;;6.84;61.12;101823.19;12257524;19;19919;-85
2023/12/27 06:48:58;;;;;;;;;;;8.20;57.70;;;6.80;60.91;101829.31;12255895;19;20369;-85
2023/12/27 06:53:00;;;;;;;;;;;8.20;57.70;;;6.81;61.09;101830.19;12256873;19;19919;-84
2023/12/27 06:57:03;;;;;;;;;;;8.20;57.70;;;6.71;60.95;101810.50;12256014;19;20260;-84
2023/12/27 07:01:04;;;;;;;;;;;8.20;57.70;;;6.74;61.17;101820.81;12254793;19;19927;-85
2023/12/27 07:05:07;;;;;;;;;;;8.20;57.80;;;6.74;61.12;101831.22;12257053;19;20261;-84
2023/12/27 07:09:09;;;;;;;;;;;8.20;57.80;;;6.72;61.08;101843.34;12257016;19;19922;-85
2023/12/27 07:13:11;;;;;;;;;;;8.10;57.70;;;6.62;61.06;101824.53;12256284;19;19932;-84
2023/12/27 07:17:13;;;;;;;;;;;8.10;57.80;;;6.65;61.06;101840.91;12253630;19;19921;-85
2023/12/27 07:21:15;;;;;;;;;;;8.10;57.80;;;6.59;61.04;101822.03;12252383;19;19922;-85
2023/12/27 07:25:16;;;;;;;;;;;8.10;57.80;;;6.55;60.96;101829.00;12253099;19;20352;-84
2023/12/27 07:29:18;;;;;;;;;;;8.00;57.70;;;6.48;61.11;101837.81;12253748;19;19919;-84
2023/12/27 07:33:19;;;;;;;;;;;8.00;57.70;;;6.53;61.13;101854.09;12255230;19;19930;-84
2023/12/27 07:37:20;;;;;;;;;;;7.90;57.70;;;6.55;61.15;101864.47;12255511;19;20304;-85
2023/12/27 07:41:22;;;;;;;;;;;7.90;57.70;;;6.53;61.16;101872.28;12251863;19;19922;-84
2023/12/27 07:45:24;;;;;;;;;;;7.90;57.80;;;6.52;61.16;101883.56;12254933;19;19936;-84
2023/12/27 07:49:25;;;;;;;;;;;7.90;57.80;;;6.44;61.07;101859.50;12255458;19;19927;-85
2023/12/27 07:53:27;;;;;;;;;;;7.90;57.80;;;6.39;61.20;101856.97;12253065;19;19927;-86
2023/12/27 07:57:29;;;;;;;;;;;7.90;57.80;;;6.48;61.22;101865.47;12252257;19;19926;-84
2023/12/27 08:01:31;;;;;;;;;;;7.90;57.80;;;6.41;61.04;101859.56;12249956;19;19918;-85
2023/12/27 08:05:34;;;;;;;;;;;7.90;58.10;;;6.46;61.13;101877.66;12257280;19;19911;-84
2023/12/27 08:09:36;;;;;;;;;;;7.80;57.80;;;6.35;61.04;101883.03;12255315;19;19925;-85
2023/12/27 08:13:38;;;;;;;;;;;7.80;57.70;;;6.26;61.11;101875.41;12254950;19;20289;-84
2023/12/27 08:17:39;;;;;;;;;;;7.80;57.70;;;6.31;60.85;101894.34;12252701;19;19922;-85
2023/12/27 08:21:41;;;;;;;;;;;7.70;57.60;;;6.24;61.04;101887.53;12253203;19;19943;-84
2023/12/27 08:25:44;;;;;;;;;;;7.70;57.60;;;6.29;61.21;101896.97;12253896;19;19918;-84
2023/12/27 08:29:45;;;;;;;;;;;7.70;57.70;;;6.24;61.13;101896.22;12254991;19;19931;-84
2023/12/27 08:33:49;;;;;;;;;;;7.60;57.70;;;6.24;61.19;101898.78;12255879;19;19936;-84
2023/12/27 08:37:51;;;;;;;;;;;7.70;57.80;;;6.12;61.05;101884.28;12250302;19;19925;-85
2023/12/27 08:41:52;;;;;;;;;;;7.70;57.90;;;6.28;61.06;101915.16;12253540;19;20286;-84
2023/12/27 08:45:54;;;;;;;;;;;7.70;57.90;;;6.25;60.96;101916.06;12256596;19;19923;-86
2023/12/27 08:49:56;;;;;;;;;;;7.60;57.90;;;6.30;61.23;101936.75;12255663;19;20000;-83
2023/12/27 08:53:58;;;;;;;;;;;7.70;57.90;;;6.28;61.10;101926.38;12255724;19;19931;-84
2023/12/27 08:58:00;;;;;;;;;;;7.70;58.00;;;6.11;61.25;101907.69;12255461;19;19947;-83
2023/12/27 09:02:01;;;;;;;;;;;7.70;58.00;;;6.30;61.15;101934.16;12255044;19;19915;-84
2023/12/27 09:06:03;;;;;;;;;;;7.70;58.00;;;6.35;61.17;101940.97;12256652;19;19974;-83
2023/12/27 09:10:05;;;;;;;;;;;7.80;58.00;;;6.13;61.30;101896.41;12255322;19;19919;-86
2023/12/27 09:14:06;;;;;;;;;;;7.80;58.00;;;6.37;61.13;101925.34;12250675;19;19925;-84
2023/12/27 09:18:10;;;;;;;;;;;7.80;58.10;;;6.34;61.31;101915.03;12251633;19;20422;-86
2023/12/27 09:22:12;;;;;;;;;;;7.80;58.00;;;6.34;61.33;101918.47;12246263;19;19926;-85
2023/12/27 09:26:13;;;;;;;;;;;7.90;58.00;;;6.19;61.07;101891.09;12248016;19;19936;-84
2023/12/27 09:30:14;;;;;;;;;;;7.90;58.10;;;6.47;61.19;101931.22;12246463;19;20416;-86
2023/12/27 09:34:16;;;;;;;;;;;7.90;58.10;;;6.16;61.21;101874.75;12249485;19;19927;-85
2023/12/27 09:38:18;;;;;;;;;;;7.90;58.10;;;6.27;61.31;101898.75;12244784;19;19921;-85
2023/12/27 09:42:19;;;;;;;;;;;7.90;58.10;;;6.50;61.39;101926.84;12242174;19;20254;-84
2023/12/27 09:46:21;;;;;;;;;;;8.00;58.10;;;6.50;61.58;101928.56;12246163;19;19915;-84
2023/12/27 09:50:23;;;;;;;;;;;8.00;58.10;;;6.53;61.43;101920.72;12245719;19;19941;-85
2023/12/27 09:54:24;;;;;;;;;;;8.00;58.10;;;6.25;61.32;101868.53;12247884;19;19925;-87
2023/12/27 09:58:29;;;;;;;;;;;8.10;58.20;;;6.57;61.28;101920.66;12244515;19;19932;-86
2023/12/27 10:02:33;;;;;;;;;;;8.10;58.20;;;6.60;61.46;101917.16;12243492;19;19932;-85
2023/12/27 10:06:38;;;;;;;;;;;8.10;58.10;;;6.72;61.48;101936.81;12237272;19;19921;-85
2023/12/27 10:10:40;;;;;;;;;;;8.20;58.20;;;6.59;61.50;101913.69;12238149;19;19940;-85
2023/12/27 10:14:42;;;;;;;;;;;8.20;58.20;;;6.78;61.53;101936.72;12243511;19;19907;-85
2023/12/27 10:18:46;;;;;;;;;;;8.30;58.20;;;6.79;61.45;101923.69;12237235;19;20346;-84
2023/12/27 10:22:48;;;;;;;;;;;8.30;58.20;;;6.62;61.45;101890.28;12243784;19;19915;-84
2023/12/27 10:26:49;;;;;;;;;;;8.30;58.20;;;6.83;61.33;101908.88;12243125;19;19918;-85
2023/12/27 10:30:52;;;;;;;;;;;8.40;58.20;;;6.91;61.57;101919.97;12241658;19;20258;-85
2023/12/27 10:34:54;;;;;;;;;;;8.40;58.20;;;6.89;61.45;101895.78;12244321;19;19918;-85
2023/12/27 10:38:56;;;;;;;;;;;8.40;58.20;;;6.95;61.47;101887.88;12241916;19;20512;-84
2023/12/27 10:42:58;;;;;;;;;;;8.50;58.20;;;7.07;61.54;101892.81;12243749;19;19922;-83
2023/12/27 10:47:03;;;;;;;;;;;8.60;58.30;;;7.05;61.64;101886.78;12243715;19;19921;-84
2023/12/27 10:51:07;;;;;;;;;;;8.60;58.30;;;6.90;61.39;101855.94;12240126;19;20372;-85
2023/12/27 10:55:12;;;;;;;;;;;8.60;58.20;;;7.14;61.50;101872.72;12244354;19;19926;-84
2023/12/27 10:59:14;;;;;;;;;;;8.70;58.30;;;7.19;61.62;101867.44;12239369;19;19937;-86
2023/12/27 11:03:16;;;;;;;;;;;8.70;58.20;;;7.13;61.48;101846.78;12254478;19;19936;-85
2023/12/27 11:07:18;;;;;;;;;;;8.80;58.20;;;7.26;61.53;101871.59;12254470;19;20310;-85
2023/12/27 11:11:21;;;;;;;;;;;8.80;58.20;;;7.25;61.67;101855.16;12251163;19;19918;-86
2023/12/27 11:15:26;;;;;;;;;;;8.80;58.20;;;7.29;61.61;101851.63;12255019;19;20028;-84
2023/12/27 11:19:27;;;;;;;;;;;8.80;58.20;;;7.19;61.42;101824.13;12251975;19;19915;-87
2023/12/27 11:23:29;;;;;;;;;;;8.90;58.20;;;7.34;61.68;101842.84;12253472;19;19933;-84
2023/12/27 11:27:31;;;;;;;;;;;8.90;58.30;;;7.39;61.46;101848.78;12253058;19;19929;-84
2023/12/27 11:31:33;;;;;;;;;;;9.00;58.20;;;7.42;61.54;101846.97;12250477;19;19915;-85
2023/12/27 11:35:35;;;;;;;;;;;9.00;58.10;;;7.51;61.63;101856.31;12254259;19;19919;-85
2023/12/27 11:39:38;;;;;;;;;;;9.00;58.10;;;7.52;61.49;101845.84;12248075;19;19922;-85
2023/12/27 11:44:03;;;;;;;;;;;9.00;58.10;;;7.61;61.52;101843.91;12251067;19;19923;-85
2023/12/27 11:48:07;;;;;;;;;;;9.10;58.20;;;7.27;61.51;101780.63;12262606;19;19911;-85
2023/12/27 11:52:11;;;;;;;;;;;9.20;58.20;;;7.51;61.41;101812.97;12259552;19;19923;-85
2023/12/27 11:56:12;;;;;;;;;;;9.10;58.10;;;7.56;61.37;101804.19;12253665;19;20249;-84
2023/12/27 12:00:28;;;;;;;;;;;9.20;58.10;;;7.65;61.64;101806.56;12249651;19;19918;-84
2023/12/27 12:04:30;;;;;;;;;;;9.20;58.20;;;7.75;61.65;101823.66;12253643;19;19918;-88
2023/12/27 12:08:46;;;;;;;;;;;9.20;58.10;;;7.70;61.62;101817.72;12262393;19;19986;-84
2023/12/27 12:12:49;;;;;;;;;;;9.30;58.10;;;7.75;61.57;101814.09;12249453;19;19918;-83
2023/12/27 12:16:51;;;;;;;;;;;9.30;58.10;;;7.74;61.49;101801.13;12251189;19;19918;-83
2023/12/27 12:20:52;;;;;;;;;;;9.30;58.10;;;7.77;61.63;101806.22;12248521;19;19915;-84
2023/12/27 12:25:05;;;;;;;;;;;9.40;58.10;;;7.83;61.42;101800.91;12252620;19;19919;-85
2023/12/27 12:29:08;;;;;;;;;;;9.40;58.10;;;7.77;61.38;101780.22;12249839;19;19918;-84
2023/12/27 12:33:10;;;;;;;;;;;9.40;57.90;;;7.89;61.59;101789.47;12251778;19;19923;-85
2023/12/27 12:37:11;;;;;;;;;;;9.40;58.00;;;7.82;61.62;101770.56;12251783;19;20374;-84
2023/12/27 12:41:13;;;;;;;;;;;9.40;57.90;;;7.88;61.52;101782.53;12246835;19;20243;-84
2023/12/27 12:45:15;;;;;;;;;;;9.40;57.90;;;7.84;61.50;101766.19;12249538;19;19911;-84
2023/12/27 12:49:17;;;;;;;;;;;9.40;57.90;;;7.88;61.34;101760.00;12248600;19;19907;-84
2023/12/27 12:53:20;;;;;;;;;;;9.40;58.00;;;7.69;61.48;101714.59;12249265;19;19919;-84
2023/12/27 12:57:22;;;;;;;;;;;9.40;57.90;;;7.70;61.55;101721.50;12248682;19;19918;-84
2023/12/27 13:01:24;;;;;;;;;;;9.50;58.00;;;7.95;61.48;101758.94;12247039;19;20021;-84
2023/12/27 13:05:26;;;;;;;;;;;9.50;58.00;;;8.00;61.38;101750.16;12250348;19;19945;-85
2023/12/27 13:09:28;;;;;;;;;;;9.50;57.90;;;7.96;61.55;101737.22;12248427;19;19983;-85
2023/12/27 13:13:29;;;;;;;;;;;9.50;57.90;;;7.97;61.34;101725.94;12248802;19;19997;-86
2023/12/27 13:17:30;;;;;;;;;;;9.50;58.00;;;7.81;61.57;101687.41;12250149;19;19914;-84
2023/12/27 13:21:32;;;;;;;;;;;9.50;58.00;;;8.02;61.32;101718.03;12248724;19;20361;-85
2023/12/27 13:25:34;;;;;;;;;;;9.50;58.00;;;8.03;61.59;101706.72;12252372;19;20263;-85
2023/12/27 13:29:36;;;;;;;;;;;9.50;58.00;;;7.92;61.53;101688.81;12249702;19;19922;-85
2023/12/27 13:33:37;;;;;;;;;;;9.50;57.90;;;7.95;61.54;101699.13;12248962;19;19930;-85
2023/12/27 13:37:39;;;;;;;;;;;9.50;57.90;;;8.04;61.52;101712.75;12249383;19;19947;-85
2023/12/27 13:41:40;;;;;;;;;;;9.50;57.90;;;8.03;61.55;101713.66;12244505;19;19930;-85
2023/12/27 13:45:42;;;;;;;;;;;9.50;57.90;;;7.98;61.33;101709.44;12248705;19;19949;-85
2023/12/27 13:49:44;;;;;;;;;;;9.50;57.90;;;7.95;61.48;101685.28;12245467;19;19919;-85
2023/12/27 13:53:46;;;;;;;;;;;9.50;57.80;;;7.96;61.38;101702.56;12248350;19;20278;-85
2023/12/27 13:57:51;;;;;;;;;;;9.50;57.80;;;7.70;61.14;101656.53;12247603;19;20322;-85
2023/12/27 14:01:54;;;;;;;;;;;9.30;57.60;;;7.64;61.31;101657.56;12245823;19;19915;-85
2023/12/27 14:05:56;;;;;;;;;;;9.40;57.70;;;7.75;61.23;101685.84;12246784;19;20365;-85
2023/12/27 14:09:58;;;;;;;;;;;9.30;57.60;;;7.80;61.30;101696.94;12246185;19;20449;-85
2023/12/27 14:14:00;;;;;;;;;;;9.30;57.60;;;7.63;61.22;101657.56;12244430;19;19918;-85
2023/12/27 14:18:04;;;;;;;;;;;9.20;57.60;;;7.70;61.40;101674.72;12248429;19;19967;-85
2023/12/27 14:22:05;;;;;;;;;;;9.20;57.60;;;7.47;61.33;101631.16;12242884;19;19919;-85
2023/12/27 14:26:07;;;;;;;;;;;9.20;57.70;;;7.63;61.17;101666.22;12247526;19;19919;-85
2023/12/27 14:30:12;;;;;;;;;;;9.00;57.60;;;7.63;61.27;101665.38;12246000;19;19915;-85
2023/12/27 14:34:13;;;;;;;;;;;9.10;57.70;;;7.25;61.19;101604.91;12245091;19;19915;-85
2023/12/27 14:38:14;;;;;;;;;;;9.10;57.60;;;7.46;61.08;101651.09;12258033;19;19903;-85
2023/12/27 14:42:16;;;;;;;;;;;9.00;57.60;;;7.38;61.29;101644.41;12253517;19;20245;-85
2023/12/27 14:46:17;;;;;;;;;;;9.00;57.60;;;7.20;61.12;101623.22;12260298;19;19917;-85
2023/12/27 14:50:19;;;;;;;;;;;8.90;57.60;;;7.34;61.13;101648.81;12255717;19;19914;-85
2023/12/27 14:54:20;;;;;;;;;;;8.80;57.50;;;7.02;61.11;101608.09;12259570;19;19940;-85
2023/12/27 14:58:22;;;;;;;;;;;8.80;57.50;;;6.86;61.19;101589.50;12255655;19;19939;-85
2023/12/27 15:02:23;;;;;;;;;;;8.70;57.50;;;7.09;61.11;101628.69;12259208;19;19936;-85
2023/12/27 15:06:25;;;;;;;;;;;8.60;57.60;;;7.01;61.03;101629.78;12258346;19;19926;-85
2023/12/27 15:10:27;;;;;;;;;;;8.60;57.60;;;7.00;61.29;101626.34;12257081;19;19907;-86
2023/12/27 15:14:29;;;;;;;;;;;8.50;57.60;;;7.12;61.26;101650.28;12257525;19;20334;-84
2023/12/27 15:18:31;;;;;;;;;;;8.50;57.60;;;7.02;60.94;101632.34;12257510;19;19927;-85
2023/12/27 15:22:33;;;;;;;;;;;8.50;57.60;;;6.91;61.00;101598.00;12255667;19;20283;-85
2023/12/27 15:26:35;;;;;;;;;;;8.40;57.50;;;6.95;60.94;101612.63;12259006;19;19926;-85
2023/12/27 15:30:37;;;;;;;;;;;8.40;57.60;;;6.77;61.09;101579.34;12253716;19;19919;-85
2023/12/27 15:34:41;;;;;;;;;;;8.30;57.60;;;6.89;61.04;101615.38;12254866;19;19922;-85
2023/12/27 15:38:52;;;;;;;;;;;8.30;57.60;;;6.81;60.90;101596.56;12256358;19;20249;-85
2023/12/27 15:42:54;;;;;;;;;;;8.30;57.70;;;6.86;61.14;101610.28;12255977;19;19940;-85
2023/12/27 15:46:57;;;;;;;;;;;8.20;57.70;;;6.80;61.15;101581.84;12248162;19;19919;-85
2023/12/27 15:50:58;;;;;;;;;;;8.20;57.80;;;6.76;61.04;101575.06;12252577;19;19939;-85
2023/12/27 15:55:00;;;;;;;;;;;8.20;57.90;;;6.73;61.30;101554.38;12253033;19;19930;-85
2023/12/27 15:59:02;;;;;;;;;;;8.20;57.90;;;6.40;61.06;101505.03;12253951;19;19926;-84
2023/12/27 16:03:05;;;;;;;;;;;8.20;58.00;;;6.81;61.21;101565.41;12253809;19;19910;-85
2023/12/27 16:07:06;;;;;;;;;;;8.20;58.30;;;6.77;61.27;101545.59;12254530;19;19918;-85
2023/12/27 16:11:07;;;;;;;;;;;8.20;58.10;;;6.81;61.11;101539.44;12250580;19;19925;-86
2023/12/27 16:15:09;;;;;;;;;;;8.30;58.10;;;6.83;61.39;101551.50;12252268;19;19915;-85
2023/12/27 16:19:11;;;;;;;;;;;8.30;58.20;;;6.84;61.09;101547.16;12248664;19;19923;-85
2023/12/27 16:23:13;;;;;;;;;;;8.30;58.20;;;6.81;61.28;101536.84;12253217;19;19935;-85
2023/12/27 16:27:14;;;;;;;;;;;8.30;58.10;;;6.93;61.31;101535.66;12252091;19;19923;-85
2023/12/27 16:31:20;;;;;;;;;;;8.30;58.10;;;6.92;61.18;101529.63;12252673;19;20262;-85
2023/12/27 16:35:21;;;;;;;;;;;8.30;58.10;;;6.78;60.99;101505.78;12251032;19;19906;-85
2023/12/27 16:39:23;;;;;;;;;;;8.30;58.00;;;6.91;61.20;101514.06;12242305;19;19939;-85
2023/12/27 16:43:26;;;;;;;;;;;8.30;58.00;;;6.88;61.24;101504.63;12248211;19;19919;-85
2023/12/27 16:47:28;;;;;;;;;;;8.30;58.00;;;6.62;61.09;101453.44;12249310;19;19930;-85
2023/12/27 16:51:30;;;;;;;;;;;8.30;58.00;;;6.58;61.14;101465.63;12246882;19;19915;-85
2023/12/27 16:55:32;;;;;;;;;;;8.30;57.90;;;6.80;61.20;101499.63;12245793;19;20002;-85
2023/12/27 16:59:33;;;;;;;;;;;8.30;58.00;;;6.81;61.28;101487.53;12245186;19;20313;-85
2023/12/27 17:03:35;;;;;;;;;;;8.30;58.00;;;6.80;61.26;101498.78;12247288;19;19911;-85
2023/12/27 17:07:36;;;;;;;;;;;8.30;58.00;;;6.84;61.23;101487.44;12248948;19;19963;-85
2023/12/27 17:11:38;;;;;;;;;;;8.30;58.10;;;6.83;61.22;101467.56;12246203;19;19934;-85
2023/12/27 17:15:40;;;;;;;;;;;8.30;58.00;;;6.61;61.13;101400.66;12246814;19;19921;-85
2023/12/27 17:19:41;;;;;;;;;;;8.30;58.00;;;6.70;61.15;101440.22;12245981;19;19918;-85
2023/12/27 17:23:43;;;;;;;;;;;8.30;57.90;;;6.73;61.29;101440.16;12245227;19;19927;-86
2023/12/27 17:27:45;;;;;;;;;;;8.30;57.90;;;6.45;61.12;101404.56;12246547;19;19919;-86
2023/12/27 17:31:48;;;;;;;;;;;8.30;57.90;;;6.67;61.17;101441.19;12241619;19;20333;-85
2023/12/27 17:35:51;;;;;;;;;;;8.20;57.90;;;6.65;61.41;101449.00;12242112;19;19918;-85
2023/12/27 17:39:52;;;;;;;;;;;8.20;57.90;;;6.78;61.10;101427.91;12236785;19;20571;-84
2023/12/27 17:43:56;;;;;;;;;;;8.20;57.90;;;6.46;61.34;101358.75;12243984;19;19918;-84
2023/12/27 17:47:57;;;;;;;;;;;8.20;57.90;;;6.72;61.18;101397.75;12242148;19;20265;-86
2023/12/27 17:51:59;;;;;;;;;;;8.20;57.90;;;6.69;61.33;101392.66;12242495;19;19927;-84
2023/12/27 17:56:01;;;;;;;;;;;8.20;57.90;;;6.58;60.99;101374.81;12243599;19;19931;-85
2023/12/27 18:00:04;;;;;;;;;;;8.10;57.90;;;6.60;61.29;101373.03;12241931;19;20637;-84
2023/12/27 18:04:07;;;;;;;;;;;8.10;57.90;;;6.67;61.23;101401.38;12244706;19;20376;-87
2023/12/27 18:08:09;;;;;;;;;;;8.10;57.90;;;6.66;61.37;101372.00;12220344;19;19976;-84
2023/12/27 18:12:13;;;;;;;;;;;8.10;58.00;;;6.58;61.27;101348.84;12250874;19;19915;-86
2023/12/27 18:16:16;;;;;;;;;;;8.10;58.00;;;6.55;61.33;101335.97;12253878;19;19919;-85
2023/12/27 18:20:17;;;;;;;;;;;8.10;58.00;;;6.48;61.41;101331.88;12250173;19;20359;-85
2023/12/27 18:24:21;;;;;;;;;;;8.10;58.00;;;6.51;61.20;101331.78;12257040;19;19915;-85
2023/12/27 18:28:27;;;;;;;;;;;8.00;58.00;;;6.36;61.44;101307.09;12256930;19;19921;-85
2023/12/27 18:32:29;;;;;;;;;;;8.00;58.00;;;6.60;61.30;101339.28;12255800;19;19939;-85